Time;durP1;ratioP1;P1;durP2;ratioP2;P2;SDS_P1;SDS_P2;PMS_P1;PMS_P2;Temp;Humidity;BMP_temperature;BMP_pressure;BME280_temperature;BME280_humidity;BME280_pressure;Samples;Min_cycle;Max_cycle;Signal;HPM_P1;HPM_P2
2023/08/24 00:01:03;;;;;;;;;;;29.10;88.20;;;;;;5097503;28;20265;-71
2023/08/24 00:03:28;;;;;;;;;;;29.00;89.10;;;;;;5097950;28;19927;-71
2023/08/24 00:05:54;;;;;;;;;;;28.90;89.90;;;;;;5097598;28;19911;-71
2023/08/24 00:08:19;;;;;;;;;;;28.80;90.30;;;;;;5096391;28;19912;-71
2023/08/24 00:10:48;;;;;;;;;;;28.80;90.50;;;;;;5097755;28;19962;-71
2023/08/24 00:13:14;;;;;;;;;;;28.70;90.40;;;;;;5095181;28;19908;-71
2023/08/24 00:15:39;;;;;;;;;;;28.70;90.80;;;;;;5097473;28;20383;-71
2023/08/24 00:18:05;;;;;;;;;;;28.60;90.80;;;;;;5097245;28;19957;-71
2023/08/24 00:20:32;;;;;;;;;;;28.50;91.20;;;;;;5093565;28;19904;-71
2023/08/24 00:22:58;;;;;;;;;;;28.50;91.60;;;;;;5095075;28;19915;-71
2023/08/24 00:25:24;;;;;;;;;;;28.50;91.20;;;;;;5096975;28;20014;-71
2023/08/24 00:27:49;;;;;;;;;;;28.40;91.30;;;;;;5097289;28;19908;-71
2023/08/24 00:30:15;;;;;;;;;;;28.40;91.90;;;;;;5096958;28;19976;-71
2023/08/24 00:32:40;;;;;;;;;;;28.40;91.60;;;;;;5096165;28;19911;-71
2023/08/24 00:35:08;;;;;;;;;;;28.40;91.60;;;;;;5096960;28;19912;-70
2023/08/24 00:37:34;;;;;;;;;;;28.40;91.60;;;;;;5083965;28;19908;-71
2023/08/24 00:40:01;;;;;;;;;;;28.40;91.70;;;;;;5097088;28;20007;-71
2023/08/24 00:42:27;;;;;;;;;;;28.30;91.80;;;;;;5097117;28;19904;-71
2023/08/24 00:44:52;;;;;;;;;;;28.30;91.80;;;;;;5096859;28;19915;-71
2023/08/24 00:47:18;;;;;;;;;;;28.30;91.30;;;;;;5094385;28;19908;-71
2023/08/24 00:49:43;;;;;;;;;;;28.30;91.80;;;;;;5096876;28;19915;-71
2023/08/24 00:52:10;;;;;;;;;;;28.20;92.30;;;;;;5095499;28;19914;-71
2023/08/24 00:54:36;;;;;;;;;;;28.20;91.70;;;;;;5096689;28;19946;-71
2023/08/24 00:57:02;;;;;;;;;;;28.20;91.70;;;;;;5096655;28;19958;-71
2023/08/24 00:59:27;;;;;;;;;;;28.20;92.10;;;;;;5096640;28;19904;-71
2023/08/24 01:01:54;;;;;;;;;;;28.10;91.90;;;;;;5096509;28;19908;-71
2023/08/24 01:04:19;;;;;;;;;;;28.10;92.10;;;;;;5096437;28;19944;-71
2023/08/24 01:06:45;;;;;;;;;;;28.10;91.80;;;;;;5095433;28;19913;-71
2023/08/24 01:09:11;;;;;;;;;;;28.20;91.60;;;;;;5096564;28;19929;-72
2023/08/24 01:11:39;;;;;;;;;;;28.20;91.40;;;;;;5096463;28;19919;-70
2023/08/24 01:14:20;;;;;;;;;;;28.20;92.00;;;;;;5096041;28;19907;-71
2023/08/24 01:16:46;;;;;;;;;;;28.10;91.70;;;;;;5094714;28;19912;-71
2023/08/24 01:19:20;;;;;;;;;;;28.10;92.30;;;;;;5096446;28;19917;-71
2023/08/24 01:21:45;;;;;;;;;;;28.00;92.00;;;;;;5096230;28;20376;-71
2023/08/24 01:24:28;;;;;;;;;;;28.00;92.00;;;;;;5095893;28;19920;-70
2023/08/24 01:26:54;;;;;;;;;;;27.90;92.50;;;;;;5084936;28;19959;-71
2023/08/24 01:29:20;;;;;;;;;;;27.90;92.30;;;;;;5096150;28;19957;-71
2023/08/24 01:31:47;;;;;;;;;;;27.90;92.20;;;;;;5096054;28;19911;-71
2023/08/24 01:34:13;;;;;;;;;;;27.90;92.70;;;;;;5096352;28;20318;-71
2023/08/24 01:36:38;;;;;;;;;;;27.90;92.30;;;;;;5094299;28;19957;-71
2023/08/24 01:39:12;;;;;;;;;;;27.90;92.40;;;;;;5087866;28;19908;-71
2023/08/24 01:41:42;;;;;;;;;;;27.80;92.50;;;;;;5095904;28;19938;-71
2023/08/24 01:44:08;;;;;;;;;;;27.80;92.70;;;;;;5096072;28;19908;-71
2023/08/24 01:46:34;;;;;;;;;;;27.70;92.70;;;;;;5096262;28;19904;-71
2023/08/24 01:49:00;;;;;;;;;;;27.70;93.00;;;;;;5095893;28;20485;-71
2023/08/24 01:51:25;;;;;;;;;;;27.70;92.60;;;;;;5095840;28;19908;-70
2023/08/24 01:53:51;;;;;;;;;;;27.80;92.50;;;;;;5082844;28;19931;-70
2023/08/24 01:56:17;;;;;;;;;;;27.80;92.40;;;;;;5094418;28;19911;-71
2023/08/24 01:58:43;;;;;;;;;;;27.80;92.50;;;;;;5094899;28;20007;-71
2023/08/24 02:01:08;;;;;;;;;;;27.80;92.50;;;;;;5095656;28;20272;-70
2023/08/24 02:03:34;;;;;;;;;;;27.80;92.40;;;;;;5095974;28;20007;-71
2023/08/24 02:06:00;;;;;;;;;;;27.70;92.70;;;;;;5094377;28;21256;-71
2023/08/24 02:08:25;;;;;;;;;;;27.70;93.10;;;;;;5097724;28;20007;-71
2023/08/24 02:10:51;;;;;;;;;;;27.70;92.70;;;;;;5099909;28;19908;-71
2023/08/24 02:13:16;;;;;;;;;;;27.60;93.10;;;;;;5099983;28;19919;-71
2023/08/24 02:15:42;;;;;;;;;;;27.50;93.30;;;;;;5099773;28;19911;-71
2023/08/24 02:18:07;;;;;;;;;;;27.50;93.50;;;;;;5099913;28;19915;-71
2023/08/24 02:20:36;;;;;;;;;;;27.40;93.60;;;;;;5097697;28;19908;-71
2023/08/24 02:23:02;;;;;;;;;;;27.40;93.60;;;;;;5100097;28;20379;-71
2023/08/24 02:25:28;;;;;;;;;;;27.30;94.00;;;;;;5099627;28;19943;-71
2023/08/24 02:27:54;;;;;;;;;;;27.30;94.20;;;;;;5098250;28;19908;-71
2023/08/24 02:30:19;;;;;;;;;;;27.20;94.10;;;;;;5096157;28;19904;-71
2023/08/24 02:32:45;;;;;;;;;;;27.10;94.50;;;;;;5097780;28;20380;-71
2023/08/24 02:35:10;;;;;;;;;;;27.10;95.00;;;;;;5098146;28;20439;-71
2023/08/24 02:37:36;;;;;;;;;;;27.00;94.90;;;;;;5099702;28;19915;-71
2023/08/24 02:40:02;;;;;;;;;;;26.90;95.40;;;;;;5099554;28;20283;-71
2023/08/24 02:42:30;;;;;;;;;;;26.80;95.70;;;;;;5098020;28;19904;-71
2023/08/24 02:44:55;;;;;;;;;;;26.70;95.90;;;;;;5097569;28;19911;-71
2023/08/24 02:47:21;;;;;;;;;;;26.60;96.40;;;;;;5099574;28;19991;-71
2023/08/24 02:49:46;;;;;;;;;;;26.50;96.60;;;;;;5099051;28;19912;-71
2023/08/24 02:52:12;;;;;;;;;;;26.50;96.50;;;;;;5099679;28;20371;-71
2023/08/24 02:54:37;;;;;;;;;;;26.40;96.70;;;;;;5099040;28;20533;-71
2023/08/24 02:57:03;;;;;;;;;;;26.40;96.60;;;;;;5097836;28;20371;-71
2023/08/24 02:59:29;;;;;;;;;;;26.40;96.80;;;;;;5099214;28;20694;-71
2023/08/24 03:01:54;;;;;;;;;;;26.30;96.90;;;;;;5097158;28;19908;-71
2023/08/24 03:04:20;;;;;;;;;;;26.30;97.10;;;;;;5098896;28;19919;-71
2023/08/24 03:06:45;;;;;;;;;;;26.30;97.50;;;;;;5087676;28;20109;-71
2023/08/24 03:09:11;;;;;;;;;;;26.20;97.80;;;;;;5096147;28;19914;-71
2023/08/24 03:11:37;;;;;;;;;;;26.10;97.80;;;;;;5098714;28;19927;-71
2023/08/24 03:14:02;;;;;;;;;;;26.00;98.00;;;;;;5098876;28;20326;-71
2023/08/24 03:16:28;;;;;;;;;;;26.00;98.60;;;;;;5098812;28;20379;-71
2023/08/24 03:18:53;;;;;;;;;;;25.90;98.70;;;;;;5098468;28;20387;-71
2023/08/24 03:21:19;;;;;;;;;;;25.80;98.90;;;;;;5098615;28;19911;-71
2023/08/24 03:23:45;;;;;;;;;;;25.70;99.10;;;;;;5098450;28;19963;-71
2023/08/24 03:26:10;;;;;;;;;;;25.70;99.30;;;;;;5098368;28;20399;-71
2023/08/24 03:28:36;;;;;;;;;;;25.70;99.20;;;;;;5097267;28;19990;-71
2023/08/24 03:31:01;;;;;;;;;;;25.70;99.10;;;;;;5098326;28;19904;-71
2023/08/24 03:33:27;;;;;;;;;;;25.80;99.30;;;;;;5098498;28;20484;-71
2023/08/24 03:35:53;;;;;;;;;;;25.80;99.10;;;;;;5098342;28;19990;-71
2023/08/24 03:38:19;;;;;;;;;;;26.00;98.60;;;;;;5098535;28;19939;-71
2023/08/24 03:40:44;;;;;;;;;;;25.90;99.00;;;;;;5098253;28;20003;-71
2023/08/24 03:43:10;;;;;;;;;;;25.90;99.10;;;;;;5098178;28;19908;-71
2023/08/24 03:45:36;;;;;;;;;;;25.90;99.00;;;;;;5098252;28;19947;-71
2023/08/24 03:48:01;;;;;;;;;;;25.80;99.20;;;;;;5098003;28;20359;-71
2023/08/24 03:50:27;;;;;;;;;;;25.90;99.20;;;;;;5098185;28;20350;-71
2023/08/24 03:52:54;;;;;;;;;;;25.90;99.30;;;;;;5097831;28;19904;-71
2023/08/24 03:55:20;;;;;;;;;;;25.90;99.30;;;;;;5098186;28;20268;-71
2023/08/24 03:57:45;;;;;;;;;;;25.90;99.60;;;;;;5084768;28;19942;-71
2023/08/24 04:00:11;;;;;;;;;;;25.90;99.50;;;;;;5097933;28;19908;-71
2023/08/24 04:02:38;;;;;;;;;;;25.80;99.70;;;;;;5098034;28;20387;-71
2023/08/24 04:05:04;;;;;;;;;;;25.80;99.90;;;;;;5096500;28;19911;-70
2023/08/24 04:07:29;;;;;;;;;;;25.90;99.90;;;;;;5097850;28;19908;-71
2023/08/24 04:09:55;;;;;;;;;;;26.00;99.50;;;;;;5097631;28;19908;-71
2023/08/24 04:12:20;;;;;;;;;;;26.00;99.30;;;;;;5097661;28;19904;-71
2023/08/24 04:14:46;;;;;;;;;;;26.10;99.20;;;;;;5097444;28;19919;-71
2023/08/24 04:17:11;;;;;;;;;;;26.10;99.20;;;;;;5097291;28;19951;-71
2023/08/24 04:19:39;;;;;;;;;;;26.00;99.30;;;;;;5097446;28;19915;-71
2023/08/24 04:22:05;;;;;;;;;;;26.00;99.40;;;;;;5093987;28;19994;-71
2023/08/24 04:24:30;;;;;;;;;;;26.00;99.60;;;;;;5097232;28;19955;-70
2023/08/24 04:26:56;;;;;;;;;;;26.10;99.50;;;;;;5097491;28;19908;-71
2023/08/24 04:29:22;;;;;;;;;;;26.10;99.50;;;;;;5097237;28;19918;-71
2023/08/24 04:31:47;;;;;;;;;;;26.00;99.80;;;;;;5095761;28;19951;-71
2023/08/24 04:34:13;;;;;;;;;;;26.00;99.90;;;;;;5097294;28;19903;-71
2023/08/24 04:36:38;;;;;;;;;;;26.00;99.90;;;;;;5097315;28;19904;-71
2023/08/24 04:39:04;;;;;;;;;;;25.90;99.90;;;;;;5097157;28;19943;-71
2023/08/24 04:41:30;;;;;;;;;;;25.80;99.90;;;;;;5095755;28;20283;-71
2023/08/24 04:43:55;;;;;;;;;;;25.90;99.90;;;;;;5097118;28;20606;-71
2023/08/24 04:46:21;;;;;;;;;;;25.90;99.90;;;;;;5096831;28;20371;-71
2023/08/24 04:48:46;;;;;;;;;;;25.90;99.90;;;;;;5096889;28;20451;-71
2023/08/24 04:51:12;;;;;;;;;;;25.90;99.90;;;;;;5097079;28;19919;-71
2023/08/24 04:53:37;;;;;;;;;;;25.90;99.90;;;;;;5096962;28;19908;-71
2023/08/24 04:56:03;;;;;;;;;;;25.90;99.90;;;;;;5096987;28;19908;-71
2023/08/24 04:58:28;;;;;;;;;;;25.90;99.90;;;;;;5096857;28;19927;-71
2023/08/24 05:00:55;;;;;;;;;;;26.00;99.90;;;;;;5096716;28;19947;-71
2023/08/24 05:03:21;;;;;;;;;;;26.10;99.90;;;;;;5096671;28;19958;-71
2023/08/24 05:05:47;;;;;;;;;;;26.10;99.90;;;;;;5096844;28;19912;-71
2023/08/24 05:08:12;;;;;;;;;;;26.10;99.90;;;;;;5096407;28;19908;-71
2023/08/24 05:10:38;;;;;;;;;;;26.00;99.90;;;;;;5096855;28;20395;-71
2023/08/24 05:13:04;;;;;;;;;;;26.00;99.90;;;;;;5095141;28;19927;-71
2023/08/24 05:15:29;;;;;;;;;;;26.00;99.90;;;;;;5096415;28;19911;-71
2023/08/24 05:17:56;;;;;;;;;;;25.90;99.90;;;;;;5096248;28;19904;-71
2023/08/24 05:20:23;;;;;;;;;;;25.80;99.90;;;;;;5095154;28;20334;-71
2023/08/24 05:22:49;;;;;;;;;;;25.80;99.90;;;;;;5095061;28;19931;-71
2023/08/24 05:25:17;;;;;;;;;;;25.80;99.90;;;;;;5095000;28;19919;-71
2023/08/24 05:27:43;;;;;;;;;;;25.70;99.90;;;;;;5096469;28;19967;-71
2023/08/24 05:30:09;;;;;;;;;;;25.70;99.90;;;;;;5095926;28;19908;-71
2023/08/24 05:32:38;;;;;;;;;;;25.70;99.90;;;;;;5096431;28;20474;-71
2023/08/24 05:35:04;;;;;;;;;;;25.70;99.90;;;;;;5094938;28;20443;-71
2023/08/24 05:37:30;;;;;;;;;;;25.70;99.90;;;;;;5094387;28;19904;-70
2023/08/24 05:39:55;;;;;;;;;;;25.80;99.90;;;;;;5095743;28;19915;-71
2023/08/24 05:42:21;;;;;;;;;;;25.80;99.90;;;;;;5093658;28;19904;-71
2023/08/24 05:44:46;;;;;;;;;;;25.80;99.90;;;;;;5095999;28;19930;-71
2023/08/24 05:47:12;;;;;;;;;;;25.90;99.90;;;;;;5096139;28;19947;-71
2023/08/24 05:49:38;;;;;;;;;;;25.90;99.90;;;;;;5096257;28;19973;-71
2023/08/24 05:52:03;;;;;;;;;;;26.00;99.90;;;;;;5095958;28;19904;-71
2023/08/24 05:54:29;;;;;;;;;;;26.10;99.90;;;;;;5096078;28;19908;-71
2023/08/24 05:56:54;;;;;;;;;;;26.10;99.90;;;;;;5094195;28;19908;-71
2023/08/24 05:59:20;;;;;;;;;;;26.10;99.90;;;;;;5094616;28;19907;-71
2023/08/24 06:01:46;;;;;;;;;;;26.20;99.90;;;;;;5095860;28;20379;-71
2023/08/24 06:04:11;;;;;;;;;;;26.20;99.90;;;;;;5094437;28;20675;-71
2023/08/24 06:06:37;;;;;;;;;;;26.40;99.90;;;;;;5096082;28;19904;-68
2023/08/24 06:09:06;;;;;;;;;;;26.50;99.90;;;;;;5095558;28;19908;-69
2023/08/24 06:11:35;;;;;;;;;;;26.50;99.90;;;;;;5095824;28;19904;-70
2023/08/24 06:14:01;;;;;;;;;;;26.60;99.90;;;;;;5092952;28;19995;-69
2023/08/24 06:16:27;;;;;;;;;;;26.70;99.90;;;;;;5083849;28;20005;-69
2023/08/24 06:18:53;;;;;;;;;;;26.80;99.90;;;;;;5095823;28;19912;-70
2023/08/24 06:21:18;;;;;;;;;;;26.80;99.90;;;;;;5086136;28;19915;-70
2023/08/24 06:23:44;;;;;;;;;;;27.00;99.90;;;;;;5082272;28;21191;-69
2023/08/24 06:26:10;;;;;;;;;;;27.00;99.90;;;;;;5094233;28;20672;-69
2023/08/24 06:28:35;;;;;;;;;;;27.10;99.90;;;;;;5089427;28;19916;-69
2023/08/24 06:31:01;;;;;;;;;;;27.20;99.90;;;;;;5090228;28;19927;-70
2023/08/24 06:33:27;;;;;;;;;;;27.30;99.90;;;;;;5087145;28;19903;-69
2023/08/24 06:35:52;;;;;;;;;;;27.40;99.90;;;;;;5095551;28;19958;-70
2023/08/24 06:38:18;;;;;;;;;;;27.40;99.90;;;;;;5095435;28;19904;-70
2023/08/24 06:40:43;;;;;;;;;;;27.50;99.90;;;;;;5095289;28;20699;-70
2023/08/24 06:43:09;;;;;;;;;;;27.60;99.90;;;;;;5095482;28;20344;-69
2023/08/24 06:45:34;;;;;;;;;;;27.70;99.90;;;;;;5094984;28;19965;-70
2023/08/24 06:48:00;;;;;;;;;;;27.80;99.90;;;;;;5095528;28;19916;-69
2023/08/24 06:50:26;;;;;;;;;;;27.90;99.90;;;;;;5094016;28;19907;-70
2023/08/24 06:52:51;;;;;;;;;;;28.00;99.90;;;;;;5094383;28;19908;-70
2023/08/24 06:55:17;;;;;;;;;;;28.10;99.90;;;;;;5098982;28;19904;-70
2023/08/24 06:57:48;;;;;;;;;;;28.20;99.70;;;;;;5098822;28;20314;-70
2023/08/24 07:00:14;;;;;;;;;;;28.30;99.70;;;;;;5087544;28;20267;-70
2023/08/24 07:02:40;;;;;;;;;;;28.40;99.60;;;;;;5097328;28;19908;-72
2023/08/24 07:05:08;;;;;;;;;;;28.40;98.90;;;;;;5096842;28;20184;-73
2023/08/24 07:07:34;;;;;;;;;;;28.50;98.80;;;;;;5094348;28;20416;-73
2023/08/24 07:09:59;;;;;;;;;;;28.60;98.90;;;;;;5093944;28;19965;-72
2023/08/24 07:12:25;;;;;;;;;;;28.70;98.20;;;;;;5093977;28;20272;-73
2023/08/24 07:14:50;;;;;;;;;;;28.70;98.00;;;;;;5093065;28;19909;-73
2023/08/24 07:17:16;;;;;;;;;;;28.80;97.90;;;;;;5091729;28;19916;-73
2023/08/24 07:19:41;;;;;;;;;;;28.90;97.90;;;;;;5086746;28;19976;-73
2023/08/24 07:22:08;;;;;;;;;;;28.90;97.10;;;;;;5094223;28;19963;-72
2023/08/24 07:24:35;;;;;;;;;;;29.00;97.30;;;;;;5086418;28;20445;-72
2023/08/24 07:27:01;;;;;;;;;;;29.00;96.80;;;;;;5098213;28;19912;-72
2023/08/24 07:29:26;;;;;;;;;;;29.10;96.70;;;;;;5098210;28;19927;-72
2023/08/24 07:31:52;;;;;;;;;;;29.20;96.70;;;;;;5096843;28;19929;-73
2023/08/24 07:34:17;;;;;;;;;;;29.30;97.70;;;;;;5084790;28;19904;-72
2023/08/24 07:36:44;;;;;;;;;;;29.40;96.60;;;;;;5098082;28;19970;-72
2023/08/24 07:39:11;;;;;;;;;;;29.50;96.20;;;;;;5097094;28;20364;-71
2023/08/24 07:41:37;;;;;;;;;;;29.60;96.40;;;;;;5098439;28;19916;-71
2023/08/24 07:44:02;;;;;;;;;;;29.70;96.10;;;;;;5097918;28;20726;-73
2023/08/24 07:46:28;;;;;;;;;;;29.70;95.90;;;;;;5097392;28;20387;-71
2023/08/24 07:48:54;;;;;;;;;;;29.70;96.00;;;;;;5097869;28;19915;-72
2023/08/24 07:51:19;;;;;;;;;;;29.80;96.10;;;;;;5094937;28;19951;-71
2023/08/24 07:53:45;;;;;;;;;;;29.90;95.60;;;;;;5091829;28;20331;-72
2023/08/24 07:56:10;;;;;;;;;;;30.00;95.80;;;;;;5097110;28;20755;-74
2023/08/24 07:58:36;;;;;;;;;;;30.10;96.20;;;;;;5097304;28;19912;-72
2023/08/24 08:01:01;;;;;;;;;;;30.20;94.10;;;;;;5095370;28;19915;-72
2023/08/24 08:03:27;;;;;;;;;;;30.20;94.20;;;;;;5098008;28;19908;-73
2023/08/24 08:05:53;;;;;;;;;;;30.30;94.10;;;;;;5096756;28;19908;-71
2023/08/24 08:08:18;;;;;;;;;;;30.40;94.10;;;;;;5097034;28;19912;-70
2023/08/24 08:10:44;;;;;;;;;;;30.50;93.00;;;;;;5096334;28;20525;-70
2023/08/24 08:13:12;;;;;;;;;;;30.60;93.70;;;;;;5097784;28;19942;-72
2023/08/24 08:15:38;;;;;;;;;;;30.60;92.90;;;;;;5086038;28;19904;-72
2023/08/24 08:18:05;;;;;;;;;;;30.60;92.70;;;;;;5097458;28;19987;-71
2023/08/24 08:20:30;;;;;;;;;;;30.60;93.20;;;;;;5095585;28;19976;-71
2023/08/24 08:22:56;;;;;;;;;;;30.70;92.70;;;;;;5096613;28;19994;-71
2023/08/24 08:25:22;;;;;;;;;;;30.80;93.00;;;;;;5097178;28;20600;-71
2023/08/24 08:27:48;;;;;;;;;;;30.90;92.00;;;;;;5097427;28;19918;-71
2023/08/24 08:30:14;;;;;;;;;;;31.00;92.00;;;;;;5097226;28;19969;-72
2023/08/24 08:32:40;;;;;;;;;;;31.10;92.90;;;;;;5095371;28;19914;-72
2023/08/24 08:35:05;;;;;;;;;;;31.20;92.30;;;;;;5097380;28;19904;-72
2023/08/24 08:37:32;;;;;;;;;;;31.20;92.50;;;;;;5097205;28;19910;-72
2023/08/24 08:39:57;;;;;;;;;;;31.30;92.40;;;;;;5097250;28;20006;-72
2023/08/24 08:42:23;;;;;;;;;;;31.30;91.90;;;;;;5096785;28;19954;-71
2023/08/24 08:44:49;;;;;;;;;;;31.40;92.20;;;;;;5096681;28;19904;-72
2023/08/24 08:47:15;;;;;;;;;;;31.50;92.20;;;;;;5096874;28;20390;-72
2023/08/24 08:49:42;;;;;;;;;;;31.60;91.90;;;;;;5096855;28;19904;-71
2023/08/24 08:52:09;;;;;;;;;;;31.70;92.10;;;;;;5095493;28;19973;-72
2023/08/24 08:54:34;;;;;;;;;;;31.70;91.70;;;;;;5096990;28;19910;-71
2023/08/24 08:57:00;;;;;;;;;;;31.80;91.50;;;;;;5096602;28;20467;-72
2023/08/24 08:59:30;;;;;;;;;;;31.90;91.20;;;;;;5095530;28;19905;-72
2023/08/24 09:01:56;;;;;;;;;;;31.80;91.20;;;;;;5096439;28;20460;-72
2023/08/24 09:04:22;;;;;;;;;;;31.90;91.00;;;;;;5095397;28;19904;-71
2023/08/24 09:06:47;;;;;;;;;;;32.10;91.40;;;;;;5096782;28;19904;-71
2023/08/24 09:09:13;;;;;;;;;;;32.10;90.90;;;;;;5096560;28;19908;-72
2023/08/24 09:11:39;;;;;;;;;;;32.20;91.00;;;;;;5095629;28;20371;-71
2023/08/24 09:14:05;;;;;;;;;;;32.20;90.90;;;;;;5095160;28;19904;-72
2023/08/24 09:16:31;;;;;;;;;;;32.30;90.50;;;;;;5096323;28;19915;-72
2023/08/24 09:18:57;;;;;;;;;;;32.40;91.00;;;;;;5096441;28;20398;-72
2023/08/24 09:21:23;;;;;;;;;;;32.40;91.50;;;;;;5087757;28;19995;-72
2023/08/24 09:23:52;;;;;;;;;;;32.50;91.00;;;;;;5095930;28;19990;-71
2023/08/24 09:26:30;;;;;;;;;;;32.50;90.00;;;;;;5085004;28;19919;-71
2023/08/24 09:28:56;;;;;;;;;;;32.60;89.10;;;;;;5087841;28;19935;-71
2023/08/24 09:31:22;;;;;;;;;;;32.70;89.00;;;;;;5086576;28;19912;-71
2023/08/24 09:33:48;;;;;;;;;;;32.90;89.80;;;;;;5087173;28;19904;-71
2023/08/24 09:36:13;;;;;;;;;;;32.90;89.70;;;;;;5092136;28;19911;-71
2023/08/24 09:38:46;;;;;;;;;;;32.90;88.30;;;;;;5094384;28;20467;-71
2023/08/24 09:41:11;;;;;;;;;;;33.00;87.00;;;;;;5091184;28;19982;-71
2023/08/24 09:43:37;;;;;;;;;;;33.00;87.70;;;;;;5087861;28;19908;-71
2023/08/24 09:46:04;;;;;;;;;;;33.20;87.60;;;;;;5093594;28;19904;-72
2023/08/24 09:48:30;;;;;;;;;;;33.20;86.90;;;;;;5088191;28;19912;-71
2023/08/24 09:50:56;;;;;;;;;;;33.30;86.90;;;;;;5094314;28;19923;-70
2023/08/24 09:53:22;;;;;;;;;;;33.40;86.70;;;;;;5091190;28;19908;-71
2023/08/24 09:55:50;;;;;;;;;;;33.40;87.70;;;;;;5091178;28;20394;-70
2023/08/24 09:58:16;;;;;;;;;;;33.40;84.50;;;;;;5090963;28;19908;-72
2023/08/24 10:00:45;;;;;;;;;;;33.50;84.80;;;;;;5093972;28;19907;-71
2023/08/24 10:03:11;;;;;;;;;;;33.50;83.00;;;;;;5088416;28;19914;-71
2023/08/24 10:05:37;;;;;;;;;;;33.60;83.90;;;;;;5094983;28;19979;-71
2023/08/24 10:08:02;;;;;;;;;;;33.60;84.10;;;;;;5085311;28;19912;-71
2023/08/24 10:10:29;;;;;;;;;;;33.70;85.90;;;;;;5090246;28;19947;-71
2023/08/24 10:12:59;;;;;;;;;;;33.90;84.40;;;;;;5094005;28;19904;-71
2023/08/24 10:15:26;;;;;;;;;;;34.10;85.40;;;;;;5088836;28;19912;-71
2023/08/24 10:17:52;;;;;;;;;;;34.10;83.60;;;;;;5091509;28;20017;-72
2023/08/24 10:20:20;;;;;;;;;;;34.20;83.00;;;;;;5093156;28;20414;-72
2023/08/24 10:22:47;;;;;;;;;;;34.10;82.90;;;;;;5091390;28;19919;-71
2023/08/24 10:25:13;;;;;;;;;;;34.20;82.50;;;;;;5091399;28;20385;-71
2023/08/24 10:27:43;;;;;;;;;;;34.20;81.90;;;;;;5090413;28;19908;-71
2023/08/24 10:30:10;;;;;;;;;;;34.30;81.60;;;;;;5091463;28;19913;-71
2023/08/24 10:32:37;;;;;;;;;;;34.30;81.10;;;;;;5096852;28;19908;-71
2023/08/24 10:35:02;;;;;;;;;;;34.40;81.00;;;;;;5091054;28;19908;-71
2023/08/24 10:37:28;;;;;;;;;;;34.40;79.80;;;;;;5094588;28;19967;-71
2023/08/24 10:39:53;;;;;;;;;;;34.40;80.40;;;;;;5091724;28;19904;-71
2023/08/24 10:42:21;;;;;;;;;;;34.50;81.50;;;;;;5094640;28;20277;-71
2023/08/24 10:44:47;;;;;;;;;;;34.60;82.10;;;;;;5092222;28;20007;-72
2023/08/24 10:47:13;;;;;;;;;;;34.60;82.70;;;;;;5094222;28;20486;-71
2023/08/24 10:49:39;;;;;;;;;;;34.60;81.40;;;;;;5095794;28;19918;-72
2023/08/24 10:52:20;;;;;;;;;;;34.60;82.60;;;;;;5096523;28;19904;-71
2023/08/24 10:54:48;;;;;;;;;;;34.70;81.60;;;;;;5092506;28;20368;-71
2023/08/24 10:57:34;;;;;;;;;;;34.80;80.30;;;;;;5095850;28;19908;-71
2023/08/24 11:00:05;;;;;;;;;;;34.80;80.80;;;;;;5095237;28;19916;-72
2023/08/24 11:02:41;;;;;;;;;;;34.80;78.80;;;;;;5092527;28;19904;-71
2023/08/24 11:05:14;;;;;;;;;;;34.90;79.60;;;;;;5095616;28;19919;-72
2023/08/24 11:07:59;;;;;;;;;;;35.00;81.10;;;;;;5094053;28;20334;-71
2023/08/24 11:10:25;;;;;;;;;;;35.10;82.50;;;;;;5091648;28;20445;-71
2023/08/24 11:13:03;;;;;;;;;;;35.20;80.20;;;;;;5094073;28;19987;-71
2023/08/24 11:15:30;;;;;;;;;;;35.30;79.40;;;;;;5091798;28;20406;-71
2023/08/24 11:18:14;;;;;;;;;;;35.40;78.60;;;;;;5095128;28;20355;-72
2023/08/24 11:20:46;;;;;;;;;;;35.40;78.60;;;;;;5091186;28;19991;-71
2023/08/24 11:23:15;;;;;;;;;;;35.40;79.20;;;;;;5093913;28;19939;-71
2023/08/24 11:25:41;;;;;;;;;;;35.40;81.30;;;;;;5094762;28;20265;-71
2023/08/24 11:28:06;;;;;;;;;;;35.50;78.70;;;;;;5092292;28;19912;-71
2023/08/24 11:30:35;;;;;;;;;;;35.50;80.40;;;;;;5095641;28;19911;-72
2023/08/24 11:33:02;;;;;;;;;;;35.50;79.00;;;;;;5096690;28;20390;-72
2023/08/24 11:35:27;;;;;;;;;;;35.60;78.80;;;;;;5097437;28;19909;-71
2023/08/24 11:37:53;;;;;;;;;;;35.60;79.20;;;;;;5093843;28;19914;-71
2023/08/24 11:40:20;;;;;;;;;;;35.50;76.90;;;;;;5094753;28;19953;-72
2023/08/24 11:42:46;;;;;;;;;;;35.60;76.80;;;;;;5096586;28;20292;-72
2023/08/24 11:45:14;;;;;;;;;;;35.70;77.80;;;;;;5094265;28;19904;-72
2023/08/24 11:47:40;;;;;;;;;;;35.70;76.50;;;;;;5097396;28;19964;-72
2023/08/24 11:50:07;;;;;;;;;;;35.80;77.20;;;;;;5094079;28;19904;-72
2023/08/24 11:52:38;;;;;;;;;;;35.90;76.00;;;;;;5096742;28;19908;-72
2023/08/24 11:55:04;;;;;;;;;;;36.00;76.60;;;;;;5093322;28;19915;-71
2023/08/24 11:57:33;;;;;;;;;;;36.00;77.60;;;;;;5094388;28;19912;-71
2023/08/24 11:59:58;;;;;;;;;;;36.10;75.10;;;;;;5095541;28;19912;-71
2023/08/24 12:02:24;;;;;;;;;;;36.20;76.10;;;;;;5091621;28;19915;-72
2023/08/24 12:04:50;;;;;;;;;;;36.10;76.40;;;;;;5094071;28;19912;-71
2023/08/24 12:07:17;;;;;;;;;;;36.10;75.20;;;;;;5096481;28;19904;-73
2023/08/24 12:09:44;;;;;;;;;;;36.20;74.50;;;;;;5096710;28;19904;-72
2023/08/24 12:12:16;;;;;;;;;;;36.10;75.20;;;;;;5096082;28;19965;-71
2023/08/24 12:14:42;;;;;;;;;;;36.30;74.40;;;;;;5092419;28;20261;-73
2023/08/24 12:17:12;;;;;;;;;;;36.40;74.70;;;;;;5095463;28;19969;-71
2023/08/24 12:19:42;;;;;;;;;;;36.40;72.60;;;;;;5087146;28;19918;-71
2023/08/24 12:22:09;;;;;;;;;;;36.50;73.10;;;;;;5088539;28;19911;-71
2023/08/24 12:24:34;;;;;;;;;;;36.70;72.50;;;;;;5095214;28;19974;-73
2023/08/24 12:27:02;;;;;;;;;;;36.80;72.30;;;;;;5095831;28;19908;-72
2023/08/24 12:29:28;;;;;;;;;;;36.80;73.30;;;;;;5092485;28;19911;-72
2023/08/24 12:31:57;;;;;;;;;;;36.70;74.00;;;;;;5093221;28;19911;-72
2023/08/24 12:34:23;;;;;;;;;;;36.70;75.20;;;;;;5094081;28;19939;-72
2023/08/24 12:36:48;;;;;;;;;;;36.70;73.20;;;;;;5089987;28;20426;-72
2023/08/24 12:39:15;;;;;;;;;;;36.70;74.00;;;;;;5094507;28;19907;-72
2023/08/24 12:41:40;;;;;;;;;;;36.80;74.20;;;;;;5093923;28;19990;-72
2023/08/24 12:44:07;;;;;;;;;;;36.80;73.90;;;;;;5088521;28;19978;-72
2023/08/24 12:46:33;;;;;;;;;;;36.90;70.90;;;;;;5092361;28;20376;-72
2023/08/24 12:48:58;;;;;;;;;;;36.90;71.10;;;;;;5093469;28;19935;-71
2023/08/24 12:51:24;;;;;;;;;;;36.90;72.10;;;;;;5090282;28;19904;-71
2023/08/24 12:53:50;;;;;;;;;;;37.10;70.20;;;;;;5095510;28;19908;-72
2023/08/24 12:56:16;;;;;;;;;;;37.00;70.50;;;;;;5088504;28;19908;-72
2023/08/24 12:58:41;;;;;;;;;;;37.00;69.40;;;;;;5093359;28;19911;-72
2023/08/24 13:01:07;;;;;;;;;;;37.00;70.80;;;;;;5091393;28;19912;-72
2023/08/24 13:03:33;;;;;;;;;;;37.10;70.30;;;;;;5091014;28;19912;-73
2023/08/24 13:05:59;;;;;;;;;;;37.20;69.90;;;;;;5091351;28;19908;-71
2023/08/24 13:08:25;;;;;;;;;;;37.10;66.50;;;;;;5092219;28;20015;-72
2023/08/24 13:10:52;;;;;;;;;;;37.20;65.70;;;;;;5089753;28;19912;-72
2023/08/24 13:13:17;;;;;;;;;;;37.40;63.80;;;;;;5091556;28;19912;-72
2023/08/24 13:15:43;;;;;;;;;;;37.60;65.00;;;;;;5093876;28;19911;-72
2023/08/24 13:18:08;;;;;;;;;;;37.70;64.70;;;;;;5092514;28;19919;-71
2023/08/24 13:20:34;;;;;;;;;;;37.90;61.00;;;;;;5092781;28;19904;-72
2023/08/24 13:22:59;;;;;;;;;;;38.00;60.00;;;;;;5091828;28;19910;-72
2023/08/24 13:25:25;;;;;;;;;;;38.20;59.00;;;;;;5095164;28;19916;-72
2023/08/24 13:27:50;;;;;;;;;;;38.40;60.60;;;;;;5095185;28;19912;-72
2023/08/24 13:30:17;;;;;;;;;;;38.40;59.10;;;;;;5088707;28;19924;-72
2023/08/24 13:32:43;;;;;;;;;;;38.50;59.10;;;;;;5092972;28;20375;-71
2023/08/24 13:35:08;;;;;;;;;;;38.60;58.10;;;;;;5091462;28;19904;-71
2023/08/24 13:37:34;;;;;;;;;;;38.70;60.70;;;;;;5089990;28;20291;-72
2023/08/24 13:40:00;;;;;;;;;;;38.70;61.10;;;;;;5091575;28;20355;-71
2023/08/24 13:42:25;;;;;;;;;;;38.60;62.30;;;;;;5090186;28;19903;-72
2023/08/24 13:44:51;;;;;;;;;;;38.50;62.10;;;;;;5090524;28;19904;-72
2023/08/24 13:47:16;;;;;;;;;;;38.60;61.80;;;;;;5094403;28;19919;-72
2023/08/24 13:49:42;;;;;;;;;;;38.50;62.90;;;;;;5088392;28;19917;-73
2023/08/24 13:52:07;;;;;;;;;;;38.40;62.70;;;;;;5090924;28;19968;-72
2023/08/24 13:54:34;;;;;;;;;;;38.30;62.30;;;;;;5093683;28;20458;-72
2023/08/24 13:57:00;;;;;;;;;;;38.40;63.70;;;;;;5091771;28;20328;-72
2023/08/24 13:59:25;;;;;;;;;;;38.50;62.50;;;;;;5092350;28;19908;-72
2023/08/24 14:01:51;;;;;;;;;;;38.60;60.10;;;;;;5093964;28;19949;-71
2023/08/24 14:04:16;;;;;;;;;;;38.70;60.10;;;;;;5090135;28;19916;-72
2023/08/24 14:06:42;;;;;;;;;;;38.80;60.50;;;;;;5095229;28;19912;-72
2023/08/24 14:09:07;;;;;;;;;;;38.90;60.50;;;;;;5092630;28;19912;-72
2023/08/24 14:11:33;;;;;;;;;;;39.00;57.90;;;;;;5093312;28;20458;-72